Terminal Aerodrome Forecast
Issued by NWS

Home | Current Version | Previous Version | Text Only | Print | Product List | Glossary On
Versions: 1 2 3 4 5 6 7 8 9 10 11 12 13 14 15 16 17 18 19
000
FTUS42 KGSP 262322
TAFGMU
TAF
KGMU 262322Z 2700/2724 VRB04KT P6SM FEW070 SCT180
     FM270500 36003KT P6SM FEW060 BKN150
     FM271400 03008KT P6SM FEW080 SCT120=

USA.gov is the U.S. government's official web portal to all federal, state and local government web resources and services.